createdAt,value
2023-05-09T00:00:03.216Z,17.68
2023-05-09T00:02:34.643Z,17.63
2023-05-09T00:05:04.001Z,17.62
2023-05-09T00:07:32.364Z,17.56
2023-05-09T00:10:00.558Z,17.54
2023-05-09T00:12:30.029Z,17.55
2023-05-09T00:14:57.939Z,17.52
2023-05-09T00:17:26.876Z,17.50
2023-05-09T00:19:55.464Z,17.46
2023-05-09T00:22:23.429Z,17.49
2023-05-09T00:24:51.367Z,17.48
2023-05-09T00:27:19.310Z,17.40
2023-05-09T00:29:48.586Z,17.36
2023-05-09T00:32:16.607Z,17.35
2023-05-09T00:34:44.788Z,17.33
2023-05-09T00:37:12.954Z,17.28
2023-05-09T00:39:40.854Z,17.20
2023-05-09T00:42:08.786Z,17.13
2023-05-09T00:44:36.679Z,17.10
2023-05-09T00:47:06.714Z,17.00
2023-05-09T00:49:34.712Z,16.96
2023-05-09T00:52:03.346Z,16.97
2023-05-09T00:54:31.289Z,16.94
2023-05-09T00:56:59.191Z,16.86
2023-05-09T00:59:27.579Z,16.78
2023-05-09T01:01:57.046Z,16.84
2023-05-09T01:04:26.432Z,16.78
2023-05-09T01:06:59.156Z,16.73
2023-05-09T01:09:32.734Z,16.72
2023-05-09T01:12:05.537Z,16.70
2023-05-09T01:14:38.748Z,16.68
2023-05-09T01:17:10.109Z,16.67
2023-05-09T01:19:52.445Z,16.67
2023-05-09T01:22:21.559Z,16.67
2023-05-09T01:25:08.056Z,16.64
2023-05-09T01:27:44.608Z,16.61
2023-05-09T01:30:14.665Z,16.61
2023-05-09T01:32:43.937Z,16.61
2023-05-09T01:35:13.660Z,16.66
2023-05-09T01:37:44.174Z,16.70
2023-05-09T01:40:14.830Z,16.73
2023-05-09T01:42:44.497Z,16.79
2023-05-09T01:45:14.493Z,16.88
2023-05-09T01:47:43.195Z,16.93
2023-05-09T01:50:11.987Z,16.96
2023-05-09T01:52:40.227Z,16.98
2023-05-09T01:55:08.827Z,16.99
2023-05-09T01:57:36.869Z,16.99
2023-05-09T02:00:05.203Z,17.04
2023-05-09T02:02:42.244Z,17.12
2023-05-09T02:05:11.771Z,17.19
2023-05-09T02:07:40.098Z,17.25
2023-05-09T02:10:09.555Z,17.33
2023-05-09T02:12:38.587Z,17.38
2023-05-09T02:15:07.791Z,17.39
2023-05-09T02:17:42.434Z,17.36
2023-05-09T02:20:11.558Z,17.35
2023-05-09T02:22:39.571Z,17.32
2023-05-09T02:25:08.372Z,17.31
2023-05-09T02:27:36.346Z,17.31
2023-05-09T02:30:07.413Z,17.30
2023-05-09T02:32:35.542Z,17.30
2023-05-09T02:35:05.214Z,17.28
2023-05-09T02:37:33.604Z,17.28
2023-05-09T02:40:01.667Z,17.31
2023-05-09T02:42:30.228Z,17.36
2023-05-09T02:44:58.103Z,17.41
2023-05-09T02:47:26.547Z,17.46
2023-05-09T02:49:54.508Z,17.49
2023-05-09T02:52:23.888Z,17.57
2023-05-09T02:54:51.991Z,17.65
2023-05-09T02:57:19.948Z,17.68
2023-05-09T02:59:48.105Z,17.72
2023-05-09T03:02:16.057Z,17.71
2023-05-09T03:04:44.589Z,17.68
2023-05-09T03:07:12.528Z,17.67
2023-05-09T03:09:41.886Z,17.67
2023-05-09T03:12:09.925Z,17.73
2023-05-09T03:14:37.889Z,17.79
2023-05-09T03:17:06.187Z,17.83
2023-05-09T03:19:36.721Z,17.84
2023-05-09T03:22:04.748Z,17.83
2023-05-09T03:24:36.952Z,17.87
2023-05-09T03:27:07.008Z,17.93
2023-05-09T03:29:35.519Z,17.99
2023-05-09T03:32:03.764Z,18.03
2023-05-09T03:34:31.767Z,18.07
2023-05-09T03:37:00.374Z,18.08
2023-05-09T03:39:31.113Z,18.06
2023-05-09T03:41:59.097Z,18.07
2023-05-09T03:44:28.630Z,18.07
2023-05-09T03:46:56.657Z,18.08
2023-05-09T03:49:25.442Z,18.10
2023-05-09T03:51:55.230Z,18.11
2023-05-09T03:54:23.196Z,18.11
2023-05-09T03:56:52.007Z,18.13
2023-05-09T03:59:20.823Z,18.16
2023-05-09T04:01:50.278Z,18.14
2023-05-09T04:04:19.471Z,18.13
2023-05-09T04:06:47.880Z,18.07
2023-05-09T04:09:17.678Z,18.02
2023-05-09T04:11:47.733Z,17.98
2023-05-09T04:14:16.909Z,17.93
2023-05-09T04:16:44.927Z,17.89
2023-05-09T04:19:14.245Z,17.89
2023-05-09T04:21:42.389Z,17.95
2023-05-09T04:24:10.733Z,18.02
2023-05-09T04:26:43.216Z,18.05
2023-05-09T04:29:14.576Z,18.04
2023-05-09T04:31:44.200Z,17.98
2023-05-09T04:34:15.909Z,17.92
2023-05-09T04:36:44.206Z,17.91
2023-05-09T04:39:12.933Z,17.91
2023-05-09T04:41:47.987Z,17.94
2023-05-09T04:44:17.566Z,17.99
2023-05-09T04:46:46.305Z,18.04
2023-05-09T04:49:15.689Z,18.08
2023-05-09T04:51:43.633Z,18.14
2023-05-09T04:54:11.575Z,18.16
2023-05-09T04:56:41.687Z,18.19
2023-05-09T04:59:09.788Z,18.22
2023-05-09T05:01:37.765Z,18.22
2023-05-09T05:04:05.981Z,18.22
2023-05-09T05:06:35.941Z,18.20
2023-05-09T05:09:05.098Z,18.18
2023-05-09T05:11:33.026Z,18.08
2023-05-09T05:14:01.336Z,17.95
2023-05-09T05:16:29.364Z,17.86
2023-05-09T05:18:57.456Z,17.83
2023-05-09T05:21:25.811Z,17.80
2023-05-09T05:23:55.690Z,17.78
2023-05-09T05:26:23.872Z,17.79
2023-05-09T05:28:55.398Z,17.78
2023-05-09T05:31:24.113Z,17.78
2023-05-09T05:33:52.008Z,17.78
2023-05-09T05:36:21.272Z,17.77
2023-05-09T05:38:49.223Z,17.75
2023-05-09T05:41:18.978Z,17.74
2023-05-09T05:43:46.961Z,17.78
2023-05-09T05:46:16.406Z,17.76
2023-05-09T05:48:44.417Z,17.71
2023-05-09T05:51:12.406Z,17.67
2023-05-09T05:53:42.016Z,17.56
2023-05-09T05:56:10.780Z,17.46
2023-05-09T05:58:40.148Z,17.42
2023-05-09T06:01:08.623Z,17.43
2023-05-09T06:03:36.646Z,17.39
2023-05-09T06:06:07.649Z,17.38
2023-05-09T06:08:35.584Z,17.38
2023-05-09T06:11:03.466Z,17.36
2023-05-09T06:13:31.461Z,17.33
2023-05-09T06:16:18.733Z,17.27
2023-05-09T06:18:50.662Z,17.24
2023-05-09T06:21:18.849Z,17.23
2023-05-09T06:24:05.130Z,17.19
2023-05-09T06:26:34.399Z,17.21
2023-05-09T06:29:02.309Z,17.23
2023-05-09T06:31:31.862Z,17.23
2023-05-09T06:33:59.826Z,17.24
2023-05-09T06:36:27.780Z,17.24
2023-05-09T06:38:55.845Z,17.24
2023-05-09T06:41:23.780Z,17.26
2023-05-09T06:43:51.856Z,17.31
2023-05-09T06:46:19.871Z,17.30
2023-05-09T06:48:49.210Z,17.34
2023-05-09T06:51:17.396Z,17.38
2023-05-09T06:53:45.300Z,17.40
2023-05-09T06:56:13.261Z,17.36
2023-05-09T06:58:41.356Z,17.36
2023-05-09T07:01:09.261Z,17.35
2023-05-09T07:03:37.471Z,17.35
2023-05-09T07:06:07.077Z,17.35
2023-05-09T07:08:35.203Z,17.39
2023-05-09T07:11:03.095Z,17.45
2023-05-09T07:13:31.098Z,17.46
2023-05-09T07:15:58.987Z,17.44
2023-05-09T07:18:26.923Z,17.38
2023-05-09T07:20:54.851Z,17.40
2023-05-09T07:23:25.361Z,17.40
2023-05-09T07:25:57.783Z,17.37
2023-05-09T07:28:26.049Z,17.39
2023-05-09T07:30:54.177Z,17.41
2023-05-09T07:33:22.192Z,17.46
2023-05-09T07:35:52.974Z,17.49
2023-05-09T07:38:20.976Z,17.55
2023-05-09T07:40:50.256Z,17.58
2023-05-09T07:43:18.420Z,17.64
2023-05-09T07:45:47.199Z,17.68
2023-05-09T07:48:15.490Z,17.68
2023-05-09T07:50:43.506Z,17.71
2023-05-09T07:53:11.515Z,17.79
2023-05-09T07:55:39.447Z,17.86
2023-05-09T07:58:09.096Z,17.91
2023-05-09T08:00:37.067Z,17.95
2023-05-09T08:03:05.574Z,17.91
2023-05-09T08:05:33.733Z,17.90
2023-05-09T08:08:01.664Z,17.89
2023-05-09T08:10:30.726Z,17.86
2023-05-09T08:13:01.231Z,17.81
2023-05-09T08:15:31.326Z,17.76
2023-05-09T08:17:59.535Z,17.64
2023-05-09T08:20:27.547Z,17.56
2023-05-09T08:22:55.628Z,17.49
2023-05-09T08:25:23.581Z,17.46
2023-05-09T08:27:53.074Z,17.44
2023-05-09T08:30:21.342Z,17.44
2023-05-09T08:32:50.685Z,17.48
2023-05-09T08:35:19.319Z,17.51
2023-05-09T08:37:47.923Z,17.44
2023-05-09T08:40:17.102Z,17.41
2023-05-09T08:42:45.982Z,17.43
2023-05-09T08:45:15.672Z,17.44
2023-05-09T08:47:43.679Z,17.51
2023-05-09T08:50:15.594Z,17.53
2023-05-09T08:52:45.255Z,17.54
2023-05-09T08:55:13.181Z,17.56
2023-05-09T08:57:42.377Z,17.61
2023-05-09T09:00:12.128Z,17.73
2023-05-09T09:02:41.880Z,17.79
2023-05-09T09:05:28.583Z,17.80
2023-05-09T09:08:00.855Z,17.86
2023-05-09T09:10:29.628Z,17.90
2023-05-09T09:12:57.821Z,17.94
2023-05-09T09:15:29.135Z,17.91
2023-05-09T09:18:00.363Z,17.88
2023-05-09T09:20:29.941Z,17.88
2023-05-09T09:23:00.433Z,17.85
2023-05-09T09:25:29.202Z,17.79
2023-05-09T09:27:57.106Z,17.81
2023-05-09T09:30:25.404Z,17.93
2023-05-09T09:32:53.620Z,17.93
2023-05-09T09:35:22.874Z,17.96
2023-05-09T09:37:52.702Z,17.98
2023-05-09T09:40:20.673Z,18.06
2023-05-09T09:42:49.322Z,18.10
2023-05-09T09:45:18.360Z,18.07
2023-05-09T09:47:47.082Z,18.02
2023-05-09T09:50:17.314Z,17.94
2023-05-09T09:52:48.938Z,17.90
2023-05-09T09:55:18.697Z,17.92
2023-05-09T09:57:48.124Z,17.94
2023-05-09T10:00:17.747Z,17.97
2023-05-09T10:02:51.331Z,17.99
2023-05-09T10:05:29.333Z,18.01
2023-05-09T10:07:58.936Z,18.06
2023-05-09T10:10:30.819Z,18.09
2023-05-09T10:12:59.604Z,18.14
2023-05-09T10:15:28.751Z,18.21
2023-05-09T10:17:59.104Z,18.23
2023-05-09T10:20:27.252Z,18.24
2023-05-09T10:22:56.570Z,18.25
2023-05-09T10:25:28.995Z,18.36
2023-05-09T10:27:57.367Z,18.43
2023-05-09T10:30:29.381Z,18.45
2023-05-09T10:33:00.188Z,18.55
2023-05-09T10:35:29.126Z,18.62
2023-05-09T10:37:57.476Z,18.56
2023-05-09T10:41:07.644Z,18.52
2023-05-09T10:43:37.702Z,18.48
2023-05-09T10:46:14.995Z,18.46
2023-05-09T10:48:49.715Z,18.44
2023-05-09T10:51:17.813Z,18.50
2023-05-09T10:53:46.616Z,18.51
2023-05-09T10:56:24.763Z,18.50
2023-05-09T10:58:54.578Z,18.51
2023-05-09T11:01:32.819Z,18.59
2023-05-09T11:04:02.329Z,18.66
2023-05-09T11:06:52.034Z,18.73
2023-05-09T11:09:41.663Z,18.72
2023-05-09T11:12:10.938Z,18.67
2023-05-09T11:14:44.415Z,18.66
2023-05-09T11:17:13.371Z,18.67
2023-05-09T11:20:00.161Z,18.74
2023-05-09T11:22:29.027Z,18.78
2023-05-09T11:25:07.474Z,18.87
2023-05-09T11:27:40.778Z,18.97
2023-05-09T11:30:11.140Z,19.07
2023-05-09T11:32:43.448Z,19.23
2023-05-09T11:35:12.639Z,19.41
2023-05-09T11:37:45.848Z,19.55
2023-05-09T11:40:14.276Z,19.64
2023-05-09T11:42:43.936Z,19.65
2023-05-09T11:45:13.878Z,19.76
2023-05-09T11:47:42.250Z,19.94
2023-05-09T11:50:19.407Z,20.05
2023-05-09T11:52:47.902Z,20.20
2023-05-09T11:55:17.000Z,20.34
2023-05-09T11:57:46.373Z,20.45
2023-05-09T12:00:16.726Z,20.51
2023-05-09T12:02:45.207Z,20.52
2023-05-09T12:05:14.659Z,20.48
2023-05-09T12:07:44.672Z,20.31
2023-05-09T12:10:14.274Z,20.25
2023-05-09T12:12:47.680Z,20.26
2023-05-09T12:15:17.615Z,20.30
2023-05-09T12:17:47.096Z,20.34
2023-05-09T12:20:16.512Z,20.55
2023-05-09T12:22:45.965Z,20.71
2023-05-09T12:25:14.886Z,20.97
2023-05-09T12:27:42.932Z,21.01
2023-05-09T12:30:12.063Z,20.93
2023-05-09T12:32:42.892Z,20.81
2023-05-09T12:35:11.523Z,20.80
2023-05-09T12:37:39.730Z,20.92
2023-05-09T12:40:12.399Z,21.09
2023-05-09T12:42:40.643Z,21.37
2023-05-09T12:45:10.015Z,21.55
2023-05-09T12:47:39.063Z,21.52
2023-05-09T12:50:10.991Z,21.34
2023-05-09T12:52:50.193Z,21.14
2023-05-09T12:55:26.792Z,20.88
2023-05-09T12:58:00.157Z,20.63
2023-05-09T13:00:28.653Z,20.27
2023-05-09T13:02:57.203Z,19.99
2023-05-09T13:05:31.774Z,19.81
2023-05-09T13:08:04.364Z,19.64
2023-05-09T13:10:32.821Z,19.50
2023-05-09T13:13:00.795Z,19.29
2023-05-09T13:15:32.115Z,19.18
2023-05-09T13:18:00.294Z,19.05
2023-05-09T13:20:29.661Z,19.05
2023-05-09T13:22:57.996Z,18.98
2023-05-09T13:25:25.935Z,18.90
2023-05-09T13:27:54.298Z,18.77
2023-05-09T13:30:42.112Z,18.61
2023-05-09T13:33:24.557Z,18.59
2023-05-09T13:35:55.283Z,18.68
2023-05-09T13:38:25.635Z,18.89
2023-05-09T13:40:53.834Z,19.09
2023-05-09T13:43:21.803Z,19.26
2023-05-09T13:45:49.933Z,19.43
2023-05-09T13:48:18.223Z,19.62
2023-05-09T13:50:46.920Z,19.86
2023-05-09T13:53:16.295Z,20.05
2023-05-09T13:55:44.305Z,20.22
2023-05-09T13:58:12.275Z,20.35
2023-05-09T14:00:40.479Z,20.46
2023-05-09T14:03:08.585Z,20.37
2023-05-09T14:05:36.534Z,20.15
2023-05-09T14:08:04.695Z,19.89
2023-05-09T14:10:34.780Z,19.62
2023-05-09T14:13:03.029Z,19.41
2023-05-09T14:15:31.036Z,19.33
2023-05-09T14:17:59.011Z,19.25
2023-05-09T14:20:27.371Z,19.22
2023-05-09T14:22:59.707Z,19.21
2023-05-09T14:25:27.930Z,19.27
2023-05-09T14:27:59.367Z,19.34
2023-05-09T14:30:27.659Z,19.36
2023-05-09T14:32:55.603Z,19.33
2023-05-09T14:35:23.770Z,19.25
2023-05-09T14:37:51.987Z,19.17
2023-05-09T14:40:20.303Z,19.07
2023-05-09T14:42:49.137Z,19.03
2023-05-09T14:45:18.618Z,18.96
2023-05-09T14:47:47.026Z,18.91
2023-05-09T14:50:15.876Z,18.87
2023-05-09T14:52:44.639Z,18.85
2023-05-09T14:55:12.837Z,18.75
2023-05-09T14:57:41.359Z,18.69
2023-05-09T15:00:20.383Z,18.58
2023-05-09T15:02:51.534Z,18.48
2023-05-09T15:05:19.648Z,18.34
2023-05-09T15:07:47.706Z,18.21
2023-05-09T15:10:16.123Z,18.11
2023-05-09T15:12:44.580Z,18.05
2023-05-09T15:15:16.316Z,17.97
2023-05-09T15:17:44.872Z,17.99
2023-05-09T15:20:15.729Z,18.04
2023-05-09T15:22:44.145Z,18.12
2023-05-09T15:25:12.151Z,18.19
2023-05-09T15:27:40.152Z,18.22
2023-05-09T15:30:09.348Z,18.27
2023-05-09T15:32:39.835Z,18.31
2023-05-09T15:35:08.554Z,18.32
2023-05-09T15:37:37.932Z,18.26
2023-05-09T15:40:08.036Z,18.23
2023-05-09T15:42:36.057Z,18.23
2023-05-09T15:45:04.083Z,18.23
2023-05-09T15:47:32.199Z,18.25
2023-05-09T15:50:00.240Z,18.26
2023-05-09T15:52:29.825Z,18.26
2023-05-09T15:55:17.267Z,18.28
2023-05-09T15:57:52.628Z,18.39
2023-05-09T16:00:20.870Z,18.48
2023-05-09T16:02:48.906Z,18.55
2023-05-09T16:05:17.220Z,18.60
2023-05-09T16:07:45.869Z,18.65
2023-05-09T16:10:15.771Z,18.79
2023-05-09T16:12:43.924Z,18.84
2023-05-09T16:15:12.700Z,18.78
2023-05-09T16:17:41.134Z,18.77
2023-05-09T16:20:13.587Z,18.63
2023-05-09T16:22:42.131Z,18.53
2023-05-09T16:25:10.405Z,18.34
2023-05-09T16:27:39.747Z,18.23
2023-05-09T16:30:08.916Z,18.31
2023-05-09T16:32:37.536Z,18.42
2023-05-09T16:35:06.335Z,18.51
2023-05-09T16:37:35.637Z,18.56
2023-05-09T16:40:04.426Z,18.61
2023-05-09T16:42:32.572Z,18.72
2023-05-09T16:45:01.840Z,18.76
2023-05-09T16:47:30.102Z,18.63
2023-05-09T16:49:58.055Z,18.57
2023-05-09T16:52:26.066Z,18.55
2023-05-09T16:54:54.835Z,18.56
2023-05-09T16:57:22.962Z,18.48
2023-05-09T16:59:51.167Z,18.36
2023-05-09T17:02:20.491Z,18.34
2023-05-09T17:04:48.734Z,18.42
2023-05-09T17:07:16.857Z,18.54
2023-05-09T17:09:44.893Z,18.60
2023-05-09T17:12:17.500Z,18.60
2023-05-09T17:14:45.753Z,18.55
2023-05-09T17:17:14.750Z,18.56
2023-05-09T17:19:44.292Z,18.67
2023-05-09T17:22:12.296Z,18.82
2023-05-09T17:24:40.203Z,19.01
2023-05-09T17:27:08.268Z,19.03
2023-05-09T17:29:36.421Z,19.04
2023-05-09T17:32:04.526Z,19.05
2023-05-09T17:34:32.461Z,19.05
2023-05-09T17:37:02.999Z,19.00
2023-05-09T17:39:30.950Z,18.92
2023-05-09T17:41:58.878Z,18.71
2023-05-09T17:44:27.859Z,18.61
2023-05-09T17:46:55.751Z,18.42
2023-05-09T17:49:23.928Z,18.19
2023-05-09T17:51:52.289Z,18.13
2023-05-09T17:54:21.802Z,18.17
2023-05-09T17:56:51.669Z,18.05
2023-05-09T17:59:19.636Z,18.15
2023-05-09T18:01:47.558Z,18.07
2023-05-09T18:04:15.881Z,18.07
2023-05-09T18:06:43.799Z,17.95
2023-05-09T18:09:11.897Z,18.04
2023-05-09T18:11:41.256Z,18.01
2023-05-09T18:14:09.218Z,18.02
2023-05-09T18:16:37.432Z,18.01
2023-05-09T18:19:05.567Z,17.99
2023-05-09T18:21:33.445Z,18.10
2023-05-09T18:24:01.444Z,18.01
2023-05-09T18:26:29.328Z,17.91
2023-05-09T18:28:58.929Z,17.90
2023-05-09T18:31:27.719Z,17.88
2023-05-09T18:33:56.373Z,17.89
2023-05-09T18:36:24.334Z,17.88
2023-05-09T18:38:52.780Z,17.82
2023-05-09T18:41:22.004Z,17.86
2023-05-09T18:43:49.890Z,17.85
2023-05-09T18:46:21.172Z,17.89
2023-05-09T18:48:51.056Z,17.83
2023-05-09T18:51:19.024Z,17.89
2023-05-09T18:53:47.365Z,17.84
2023-05-09T18:56:15.396Z,17.70
2023-05-09T18:58:43.390Z,17.73
2023-05-09T19:01:11.963Z,17.52
2023-05-09T19:03:45.305Z,17.46
2023-05-09T19:06:14.002Z,17.35
2023-05-09T19:08:42.320Z,17.38
2023-05-09T19:11:11.563Z,17.33
2023-05-09T19:13:49.488Z,17.29
2023-05-09T19:16:21.493Z,17.37
2023-05-09T19:18:51.409Z,17.26
2023-05-09T19:21:19.380Z,17.35
2023-05-09T19:23:49.214Z,17.37
2023-05-09T19:26:19.728Z,17.32
2023-05-09T19:28:48.101Z,17.22
2023-05-09T19:31:16.287Z,17.10
2023-05-09T19:33:45.765Z,17.11
2023-05-09T19:36:15.198Z,17.08
2023-05-09T19:38:43.096Z,17.02
2023-05-09T19:41:12.754Z,16.96
2023-05-09T19:43:41.019Z,16.88
2023-05-09T19:46:09.120Z,16.92
2023-05-09T19:48:37.141Z,16.93
2023-05-09T19:51:05.258Z,16.93
2023-05-09T19:53:34.680Z,16.93
2023-05-09T19:56:02.699Z,16.95
2023-05-09T19:58:30.610Z,16.98
2023-05-09T20:00:58.687Z,16.98
2023-05-09T20:03:26.637Z,17.00
2023-05-09T20:05:54.723Z,16.94
2023-05-09T20:08:22.677Z,16.87
2023-05-09T20:10:52.370Z,16.88
2023-05-09T20:13:20.522Z,16.89
2023-05-09T20:15:48.724Z,16.89
2023-05-09T20:18:16.765Z,16.91
2023-05-09T20:20:44.910Z,16.87
2023-05-09T20:23:12.876Z,16.91
2023-05-09T20:25:41.019Z,16.85
2023-05-09T20:28:11.997Z,16.87
2023-05-09T20:30:40.125Z,16.86
2023-05-09T20:33:08.229Z,16.85
2023-05-09T20:35:36.761Z,16.84
2023-05-09T20:38:05.135Z,16.83
2023-05-09T20:40:33.251Z,16.81
2023-05-09T20:43:01.192Z,16.82
2023-05-09T20:45:30.989Z,16.84
2023-05-09T20:47:59.390Z,16.82
2023-05-09T20:50:27.520Z,16.83
2023-05-09T20:52:55.620Z,16.83
2023-05-09T20:55:23.730Z,16.86
2023-05-09T20:57:51.733Z,16.85
2023-05-09T21:00:19.807Z,16.82
2023-05-09T21:02:49.282Z,16.83
2023-05-09T21:05:17.577Z,16.81
2023-05-09T21:07:45.623Z,16.76
2023-05-09T21:10:13.994Z,16.79
2023-05-09T21:12:42.236Z,16.82
2023-05-09T21:15:11.043Z,16.83
2023-05-09T21:17:39.224Z,16.84
2023-05-09T21:20:10.202Z,16.87
2023-05-09T21:22:38.203Z,16.87
2023-05-09T21:25:07.058Z,16.83
2023-05-09T21:27:35.022Z,16.77
2023-05-09T21:30:03.017Z,16.73
2023-05-09T21:32:31.017Z,16.67
2023-05-09T21:34:59.206Z,16.65
2023-05-09T21:37:29.045Z,16.62
2023-05-09T21:39:56.999Z,16.54
2023-05-09T21:42:24.958Z,16.48
2023-05-09T21:44:52.900Z,16.48
2023-05-09T21:47:20.994Z,16.44
2023-05-09T21:49:49.085Z,16.44
2023-05-09T21:52:18.480Z,16.41
2023-05-09T21:54:47.846Z,16.39
2023-05-09T21:57:15.981Z,16.43
2023-05-09T21:59:44.259Z,16.45
2023-05-09T22:02:12.418Z,16.50
2023-05-09T22:04:41.011Z,16.53
2023-05-09T22:07:09.066Z,16.55
2023-05-09T22:09:36.932Z,16.56
2023-05-09T22:12:06.833Z,16.55
2023-05-09T22:14:41.926Z,16.58
2023-05-09T22:17:17.165Z,16.56
2023-05-09T22:19:45.137Z,16.61
2023-05-09T22:22:13.462Z,16.63
2023-05-09T22:24:41.622Z,16.65
2023-05-09T22:27:11.114Z,16.70
2023-05-09T22:29:39.017Z,16.76
2023-05-09T22:32:08.373Z,16.83
2023-05-09T22:34:36.544Z,16.82
2023-05-09T22:37:04.652Z,16.92
2023-05-09T22:39:32.739Z,16.90
2023-05-09T22:42:02.495Z,16.89
2023-05-09T22:44:32.434Z,16.90
2023-05-09T22:47:00.404Z,16.89
2023-05-09T22:49:28.329Z,16.88
2023-05-09T22:51:56.398Z,16.89
2023-05-09T22:54:25.815Z,16.89
2023-05-09T22:56:53.749Z,16.91
2023-05-09T22:59:21.673Z,16.94
2023-05-09T23:01:51.869Z,16.95
2023-05-09T23:04:19.809Z,16.97
2023-05-09T23:06:47.871Z,16.96
2023-05-09T23:09:15.841Z,16.92
2023-05-09T23:11:43.751Z,16.91
2023-05-09T23:14:11.867Z,16.94
2023-05-09T23:16:39.758Z,16.99
2023-05-09T23:19:09.223Z,17.03
2023-05-09T23:21:37.168Z,17.07
2023-05-09T23:24:05.441Z,17.08
2023-05-09T23:26:33.444Z,17.03
2023-05-09T23:29:01.677Z,17.02
2023-05-09T23:31:29.634Z,17.02
2023-05-09T23:33:57.653Z,17.01
2023-05-09T23:36:26.911Z,17.00
2023-05-09T23:38:54.968Z,17.00
2023-05-09T23:41:22.869Z,16.98
2023-05-09T23:43:50.937Z,16.96
2023-05-09T23:46:18.857Z,16.92
2023-05-09T23:48:46.839Z,16.92
2023-05-09T23:51:14.756Z,16.88
2023-05-09T23:53:44.123Z,16.85
2023-05-09T23:56:11.996Z,16.84
2023-05-09T23:58:40.078Z,16.83
